createdAt,value
2018-11-23T00:00:10.141Z,18.30
2018-11-23T00:02:38.317Z,19.47
2018-11-23T00:05:06.561Z,20.03
2018-11-23T00:07:34.902Z,19.27
2018-11-23T00:10:03.181Z,19.53
2018-11-23T00:12:31.441Z,18.67
2018-11-23T00:14:59.656Z,18.77
2018-11-23T00:17:27.885Z,20.17
2018-11-23T00:19:56.079Z,19.73
2018-11-23T00:22:24.358Z,19.40
2018-11-23T00:24:52.573Z,18.60
2018-11-23T00:27:20.892Z,19.00
2018-11-23T00:29:49.304Z,19.27
2018-11-23T00:32:17.552Z,19.90
2018-11-23T00:34:45.867Z,18.87
2018-11-23T00:37:14.104Z,18.77
2018-11-23T00:39:42.340Z,18.23
2018-11-23T00:42:10.585Z,17.70
2018-11-23T00:44:38.795Z,18.07
2018-11-23T00:47:07.077Z,19.23
2018-11-23T00:49:35.311Z,18.63
2018-11-23T00:52:03.559Z,17.63
2018-11-23T00:54:31.785Z,17.47
2018-11-23T00:56:59.998Z,16.67
2018-11-23T00:59:28.229Z,17.57
2018-11-23T01:02:03.186Z,17.60
2018-11-23T01:04:31.805Z,16.20
2018-11-23T01:07:00.054Z,16.53
2018-11-23T01:09:28.256Z,16.53
2018-11-23T01:11:56.453Z,16.50
2018-11-23T01:14:24.737Z,17.03
2018-11-23T01:16:52.984Z,16.93
2018-11-23T01:19:21.204Z,17.57
2018-11-23T01:21:49.433Z,16.17
2018-11-23T01:24:17.683Z,16.90
2018-11-23T01:26:46.002Z,17.30
2018-11-23T01:29:14.242Z,16.87
2018-11-23T01:31:42.554Z,18.10
2018-11-23T01:34:10.759Z,18.80
2018-11-23T01:36:38.966Z,17.50
2018-11-23T01:39:08.623Z,18.13
2018-11-23T01:41:36.873Z,18.33
2018-11-23T01:44:05.107Z,18.30
2018-11-23T01:46:33.349Z,18.53
2018-11-23T01:49:01.610Z,19.47
2018-11-23T01:51:29.863Z,19.27
2018-11-23T01:53:58.097Z,19.60
2018-11-23T01:56:26.412Z,18.30
2018-11-23T01:58:54.613Z,19.63
2018-11-23T02:01:22.871Z,18.50
2018-11-23T02:03:51.081Z,17.40
2018-11-23T02:06:19.402Z,18.07
2018-11-23T02:08:47.739Z,17.70
2018-11-23T02:11:15.986Z,17.50
2018-11-23T02:13:44.854Z,18.23
2018-11-23T02:16:13.065Z,17.07
2018-11-23T02:18:41.368Z,18.93
2018-11-23T02:21:09.583Z,18.80
2018-11-23T02:23:37.819Z,17.20
2018-11-23T02:26:06.529Z,17.63
2018-11-23T02:28:34.750Z,17.13
2018-11-23T02:31:08.435Z,16.43
2018-11-23T02:33:38.016Z,16.70
2018-11-23T02:36:06.870Z,16.80
2018-11-23T02:38:35.105Z,16.53
2018-11-23T02:41:03.310Z,17.20
2018-11-23T02:43:31.552Z,15.27
2018-11-23T02:45:59.742Z,16.77
2018-11-23T02:48:28.120Z,17.93
2018-11-23T02:50:56.409Z,19.07
2018-11-23T02:53:24.606Z,19.57
2018-11-23T02:55:52.863Z,18.60
2018-11-23T02:58:21.130Z,17.67
2018-11-23T03:00:49.382Z,16.83
2018-11-23T03:03:17.582Z,17.13
2018-11-23T03:05:45.803Z,16.37
2018-11-23T03:08:14.301Z,15.80
2018-11-23T03:10:42.533Z,16.43
2018-11-23T03:13:10.796Z,17.53
2018-11-23T03:15:39.025Z,16.83
2018-11-23T03:18:07.308Z,16.30
2018-11-23T03:20:35.511Z,16.73
2018-11-23T03:23:03.791Z,15.87
2018-11-23T03:25:32.024Z,16.03
2018-11-23T03:28:00.277Z,15.90
2018-11-23T03:30:28.535Z,16.37
2018-11-23T03:32:56.860Z,15.77
2018-11-23T03:35:25.089Z,15.33
2018-11-23T03:37:53.318Z,15.53
2018-11-23T03:40:21.562Z,14.30
2018-11-23T03:42:49.871Z,15.23
2018-11-23T03:45:18.607Z,14.97
2018-11-23T03:47:46.962Z,16.03
2018-11-23T03:50:15.970Z,16.33
2018-11-23T03:52:44.585Z,16.20
2018-11-23T03:55:12.831Z,16.07
2018-11-23T03:57:41.083Z,15.87
2018-11-23T04:00:17.828Z,15.50
2018-11-23T04:02:45.852Z,15.57
2018-11-23T04:05:14.111Z,15.13
2018-11-23T04:07:42.377Z,15.27
2018-11-23T04:10:12.157Z,14.67
2018-11-23T04:12:40.385Z,14.70
2018-11-23T04:15:09.020Z,15.63
2018-11-23T04:17:37.304Z,14.03
2018-11-23T04:20:06.819Z,14.33
2018-11-23T04:22:35.103Z,14.57
2018-11-23T04:25:03.395Z,14.10
2018-11-23T04:27:31.658Z,15.10
2018-11-23T04:29:59.914Z,14.97
2018-11-23T04:32:28.167Z,15.23
2018-11-23T04:34:56.398Z,14.87
2018-11-23T04:37:24.618Z,14.43
2018-11-23T04:39:52.916Z,15.77
2018-11-23T04:42:21.147Z,15.97
2018-11-23T04:44:49.405Z,14.80
2018-11-23T04:47:17.627Z,13.93
2018-11-23T04:49:46.143Z,14.53
2018-11-23T04:52:14.342Z,13.73
2018-11-23T04:54:42.554Z,13.80
2018-11-23T04:57:10.789Z,13.77
2018-11-23T04:59:39.083Z,14.63
2018-11-23T05:02:07.323Z,15.20
2018-11-23T05:04:35.548Z,16.57
2018-11-23T05:07:03.809Z,15.07
2018-11-23T05:09:32.083Z,15.43
2018-11-23T05:12:00.292Z,14.60
2018-11-23T05:14:28.495Z,16.83
2018-11-23T05:16:56.733Z,15.47
2018-11-23T05:19:24.957Z,16.53
2018-11-23T05:21:53.186Z,16.20
2018-11-23T05:24:21.446Z,16.00
2018-11-23T05:26:49.667Z,15.60
2018-11-23T05:29:17.868Z,16.20
2018-11-23T05:31:46.434Z,16.57
2018-11-23T05:34:14.638Z,16.87
2018-11-23T05:36:43.009Z,16.23
2018-11-23T05:39:11.242Z,15.40
2018-11-23T05:41:39.465Z,16.40
2018-11-23T05:44:07.738Z,18.70
2018-11-23T05:46:35.978Z,22.30
2018-11-23T05:49:04.269Z,23.80
2018-11-23T05:51:32.761Z,26.37
2018-11-23T05:54:00.991Z,26.17
2018-11-23T05:56:29.254Z,27.03
2018-11-23T05:58:57.463Z,23.97
2018-11-23T06:01:25.690Z,19.87
2018-11-23T06:03:53.987Z,20.60
2018-11-23T06:06:22.268Z,22.07
2018-11-23T06:08:50.694Z,21.00
2018-11-23T06:11:18.898Z,20.77
2018-11-23T06:13:47.122Z,20.23
2018-11-23T06:18:51.478Z,21.50
2018-11-23T06:21:19.728Z,19.13
2018-11-23T06:23:47.914Z,19.93
2018-11-23T06:26:21.186Z,20.47
2018-11-23T06:28:49.446Z,19.57
2018-11-23T06:31:17.694Z,18.23
2018-11-23T06:33:46.947Z,18.30
2018-11-23T06:36:15.253Z,19.40
2018-11-23T06:38:43.499Z,18.93
2018-11-23T06:41:11.924Z,18.23
2018-11-23T06:43:40.132Z,18.43
2018-11-23T06:46:09.599Z,18.03
2018-11-23T06:48:37.870Z,18.57
2018-11-23T06:51:06.280Z,18.17
2018-11-23T06:53:34.534Z,17.77
2018-11-23T06:56:03.273Z,17.43
2018-11-23T06:58:31.502Z,16.50
2018-11-23T07:00:59.714Z,17.90
2018-11-23T07:03:34.611Z,18.47
2018-11-23T07:06:02.811Z,18.23
2018-11-23T07:08:31.034Z,17.13
2018-11-23T07:11:00.475Z,16.73
2018-11-23T07:13:29.534Z,16.93
2018-11-23T07:15:57.786Z,16.63
2018-11-23T07:18:26.202Z,16.67
2018-11-23T07:20:54.427Z,17.40
2018-11-23T07:23:22.711Z,19.07
2018-11-23T07:25:51.027Z,19.63
2018-11-23T07:28:19.209Z,18.70
2018-11-23T07:30:47.429Z,17.63
2018-11-23T07:33:15.708Z,18.70
2018-11-23T07:35:43.942Z,17.63
2018-11-23T07:38:12.157Z,18.77
2018-11-23T07:40:52.876Z,18.60
2018-11-23T07:43:21.131Z,18.60
2018-11-23T07:45:49.447Z,18.13
2018-11-23T07:48:17.705Z,19.13
2018-11-23T07:50:45.929Z,19.57
2018-11-23T07:53:14.194Z,18.83
2018-11-23T07:55:42.421Z,18.20
2018-11-23T07:58:10.962Z,19.37
2018-11-23T08:00:39.230Z,18.20
2018-11-23T08:03:07.455Z,18.07
2018-11-23T08:05:35.683Z,18.77
2018-11-23T08:08:03.991Z,18.23
2018-11-23T08:10:31.434Z,18.87
2018-11-23T08:12:59.692Z,17.20
2018-11-23T08:15:28.329Z,19.30
2018-11-23T08:17:56.601Z,19.77
2018-11-23T08:20:25.505Z,20.10
2018-11-23T08:22:53.874Z,19.43
2018-11-23T08:25:23.330Z,19.17
2018-11-23T08:27:53.001Z,18.43
2018-11-23T08:30:25.677Z,18.97
2018-11-23T08:32:54.194Z,18.87
2018-11-23T08:35:22.414Z,21.03
2018-11-23T08:37:50.644Z,19.80
2018-11-23T08:40:20.958Z,18.57
2018-11-23T08:42:49.977Z,20.83
2018-11-23T08:45:19.777Z,19.67
2018-11-23T08:47:47.968Z,18.73
2018-11-23T08:50:19.346Z,21.03
2018-11-23T08:52:47.546Z,20.17
2018-11-23T08:55:16.591Z,20.20
2018-11-23T08:57:44.806Z,20.43
2018-11-23T09:00:16.414Z,19.00
2018-11-23T09:02:45.856Z,20.50
2018-11-23T09:05:14.582Z,20.80
2018-11-23T09:07:43.830Z,24.13
2018-11-23T09:10:14.517Z,21.33
2018-11-23T09:12:43.578Z,23.10
2018-11-23T09:15:13.186Z,23.60
2018-11-23T09:17:41.916Z,20.87
2018-11-23T09:20:11.003Z,21.87
2018-11-23T09:22:39.225Z,21.67
2018-11-23T09:25:09.502Z,20.47
2018-11-23T09:27:37.734Z,21.80
2018-11-23T09:30:13.046Z,20.03
2018-11-23T09:32:41.470Z,19.47
2018-11-23T09:35:09.783Z,19.27
2018-11-23T09:37:38.706Z,19.23
2018-11-23T09:40:09.195Z,17.40
2018-11-23T09:42:37.490Z,17.10
2018-11-23T09:45:07.951Z,17.83
2018-11-23T09:47:36.656Z,17.50
2018-11-23T09:50:07.202Z,17.57
2018-11-23T09:52:35.437Z,17.43
2018-11-23T09:55:03.701Z,18.33
2018-11-23T09:57:31.917Z,17.57
2018-11-23T10:00:00.613Z,19.30
2018-11-23T10:02:28.793Z,17.37
2018-11-23T10:04:57.109Z,18.43
2018-11-23T10:07:25.481Z,17.77
2018-11-23T10:09:53.836Z,18.43
2018-11-23T10:12:22.070Z,18.33
2018-11-23T10:14:50.326Z,18.23
2018-11-23T10:17:18.554Z,18.07
2018-11-23T10:19:46.766Z,18.10
2018-11-23T10:22:15.065Z,18.20
2018-11-23T10:24:43.318Z,18.57
2018-11-23T10:27:11.523Z,17.83
2018-11-23T10:29:39.794Z,17.03
2018-11-23T10:32:08.053Z,18.00
2018-11-23T10:34:36.277Z,16.93
2018-11-23T10:37:04.626Z,17.67
2018-11-23T10:39:32.877Z,18.03
2018-11-23T10:42:01.073Z,18.37
2018-11-23T10:44:29.322Z,17.23
2018-11-23T10:46:57.619Z,18.87
2018-11-23T10:49:25.842Z,17.30
2018-11-23T10:51:54.054Z,17.23
2018-11-23T10:54:22.317Z,19.73
2018-11-23T10:56:50.540Z,17.63
2018-11-23T10:59:21.030Z,18.30
2018-11-23T11:01:54.458Z,16.87
2018-11-23T11:04:28.130Z,17.53
2018-11-23T11:07:00.570Z,17.67
2018-11-23T11:09:29.112Z,17.37
2018-11-23T11:11:57.760Z,17.63
2018-11-23T11:14:25.954Z,17.50
2018-11-23T11:16:54.224Z,17.10
2018-11-23T11:19:22.465Z,17.77
2018-11-23T11:21:50.819Z,17.67
2018-11-23T11:24:19.059Z,18.17
2018-11-23T11:26:47.311Z,18.60
2018-11-23T11:29:15.514Z,17.97
2018-11-23T11:31:44.022Z,18.23
2018-11-23T11:34:12.307Z,17.33
2018-11-23T11:36:40.538Z,17.60
2018-11-23T11:39:10.295Z,17.27
2018-11-23T11:41:38.631Z,17.00
2018-11-23T11:44:06.959Z,17.50
2018-11-23T11:46:35.283Z,16.73
2018-11-23T11:49:03.605Z,16.83
2018-11-23T11:51:31.884Z,17.33
2018-11-23T11:56:39.355Z,16.53
2018-11-23T11:59:07.610Z,18.00
2018-11-23T12:01:35.894Z,17.60
2018-11-23T12:04:04.181Z,16.83
2018-11-23T12:06:32.429Z,17.40
2018-11-23T12:09:01.602Z,17.07
2018-11-23T12:11:29.788Z,35.67
2018-11-23T12:13:57.942Z,47.27
2018-11-23T12:16:26.098Z,34.30
2018-11-23T12:18:54.277Z,17.70
2018-11-23T12:21:22.466Z,16.73
2018-11-23T12:23:50.636Z,16.23
2018-11-23T12:26:18.852Z,15.63
2018-11-23T12:28:47.109Z,15.87
2018-11-23T12:31:15.301Z,16.10
2018-11-23T12:33:43.537Z,16.47
2018-11-23T12:36:11.789Z,16.00
2018-11-23T12:38:43.037Z,15.90
2018-11-23T12:41:08.288Z,16.73
2018-11-23T12:43:36.501Z,15.73
2018-11-23T12:46:04.808Z,16.23
2018-11-23T12:48:33.023Z,16.27
2018-11-23T12:51:01.236Z,16.30
2018-11-23T12:53:29.466Z,15.87
2018-11-23T12:55:57.702Z,16.40
2018-11-23T12:58:25.920Z,16.50
2018-11-23T13:00:54.113Z,15.80
2018-11-23T13:03:22.440Z,17.07
2018-11-23T13:05:50.743Z,17.47
2018-11-23T13:08:18.925Z,16.00
2018-11-23T13:10:47.169Z,15.67
2018-11-23T13:13:15.382Z,16.33
2018-11-23T13:15:43.606Z,16.33
2018-11-23T13:18:11.904Z,16.23
2018-11-23T13:20:40.094Z,16.40
2018-11-23T13:23:08.557Z,16.73
2018-11-23T13:25:36.754Z,17.30
2018-11-23T13:28:05.168Z,17.00
2018-11-23T13:30:34.668Z,15.80
2018-11-23T13:33:02.906Z,17.27
2018-11-23T13:35:31.105Z,16.13
2018-11-23T13:37:59.373Z,16.77
2018-11-23T13:40:28.497Z,17.20
2018-11-23T13:42:57.686Z,16.77
2018-11-23T13:45:27.202Z,17.27
2018-11-23T13:47:55.403Z,16.20
2018-11-23T13:50:24.165Z,16.27
2018-11-23T13:52:53.799Z,16.13
2018-11-23T13:55:21.997Z,16.13
2018-11-23T13:57:50.228Z,17.10
2018-11-23T14:00:20.866Z,16.77
2018-11-23T14:02:49.146Z,16.53
2018-11-23T14:05:18.726Z,15.57
2018-11-23T14:07:48.292Z,17.43
2018-11-23T14:10:17.902Z,17.37
2018-11-23T14:12:46.336Z,17.47
2018-11-23T14:15:23.244Z,17.67
2018-11-23T14:17:52.339Z,17.43
2018-11-23T14:20:21.362Z,18.13
2018-11-23T14:22:49.589Z,17.77
2018-11-23T14:25:19.874Z,17.77
2018-11-23T14:27:48.597Z,17.03
2018-11-23T14:30:19.153Z,18.50
2018-11-23T14:32:47.686Z,17.57
2018-11-23T14:35:18.201Z,17.33
2018-11-23T14:37:47.054Z,17.30
2018-11-23T14:40:15.702Z,18.37
2018-11-23T14:42:45.862Z,17.67
2018-11-23T14:45:18.552Z,18.80
2018-11-23T14:47:47.400Z,17.87
2018-11-23T14:50:17.805Z,20.03
2018-11-23T14:52:47.337Z,18.50
2018-11-23T14:55:15.848Z,19.10
2018-11-23T14:57:44.481Z,19.13
2018-11-23T15:00:19.866Z,18.77
2018-11-23T15:02:49.385Z,19.20
2018-11-23T15:05:18.181Z,18.10
2018-11-23T15:07:46.553Z,19.60
2018-11-23T15:10:15.882Z,20.10
2018-11-23T15:12:45.661Z,19.13
2018-11-23T15:15:15.200Z,18.67
2018-11-23T15:17:44.523Z,18.80
2018-11-23T15:20:15.542Z,19.63
2018-11-23T15:22:43.848Z,18.90
2018-11-23T15:25:12.086Z,19.00
2018-11-23T15:27:41.213Z,18.83
2018-11-23T15:30:17.753Z,19.40
2018-11-23T15:32:46.260Z,20.57
2018-11-23T15:35:14.786Z,19.60
2018-11-23T15:37:43.218Z,19.77
2018-11-23T15:40:15.838Z,19.37
2018-11-23T15:42:44.370Z,19.30
2018-11-23T15:45:14.551Z,19.87
2018-11-23T15:47:42.801Z,19.53
2018-11-23T15:50:15.301Z,19.83
2018-11-23T15:52:43.826Z,20.00
2018-11-23T15:55:14.646Z,19.73
2018-11-23T15:57:43.554Z,20.60
2018-11-23T16:00:14.030Z,21.90
2018-11-23T16:02:42.743Z,21.00
2018-11-23T16:05:11.743Z,21.17
2018-11-23T16:07:40.000Z,21.90
2018-11-23T16:10:19.444Z,21.47
2018-11-23T16:12:48.825Z,20.83
2018-11-23T16:15:17.744Z,21.10
2018-11-23T16:17:46.238Z,22.77
2018-11-23T16:20:15.699Z,22.40
2018-11-23T16:22:45.139Z,21.27
2018-11-23T16:25:13.490Z,21.20
2018-11-23T16:27:42.618Z,22.03
2018-11-23T16:30:14.701Z,24.67
2018-11-23T16:32:43.645Z,24.03
2018-11-23T16:35:12.171Z,23.77
2018-11-23T16:37:41.223Z,22.47
2018-11-23T16:40:11.290Z,23.63
2018-11-23T16:42:39.916Z,22.93
2018-11-23T16:45:11.290Z,22.27
2018-11-23T16:47:39.579Z,22.27
2018-11-23T16:50:08.360Z,22.47
2018-11-23T16:52:36.686Z,23.20
2018-11-23T16:55:06.146Z,23.87
2018-11-23T16:57:34.384Z,24.10
2018-11-23T17:00:02.847Z,23.47
2018-11-23T17:02:32.774Z,23.47
2018-11-23T17:05:00.994Z,24.03
2018-11-23T17:07:29.330Z,24.10
2018-11-23T17:09:57.913Z,23.70
2018-11-23T17:12:26.166Z,25.07
2018-11-23T17:14:54.391Z,23.60
2018-11-23T17:17:22.639Z,24.10
2018-11-23T17:19:50.898Z,23.73
2018-11-23T17:22:19.132Z,24.33
2018-11-23T17:24:47.421Z,22.30
2018-11-23T17:27:15.635Z,24.83
2018-11-23T17:29:43.860Z,23.00
2018-11-23T17:32:12.094Z,24.23
2018-11-23T17:34:40.391Z,23.33
2018-11-23T17:37:08.598Z,25.23
2018-11-23T17:39:36.819Z,26.30
2018-11-23T17:42:05.335Z,24.83
2018-11-23T17:44:33.584Z,24.00
2018-11-23T17:47:01.862Z,24.10
2018-11-23T17:49:30.114Z,24.43
2018-11-23T17:51:58.454Z,24.93
2018-11-23T17:54:26.711Z,25.57
2018-11-23T17:56:54.964Z,26.30
2018-11-23T17:59:23.926Z,27.43
2018-11-23T18:01:52.185Z,27.33
2018-11-23T18:04:20.398Z,26.10
2018-11-23T18:06:48.645Z,26.30
2018-11-23T18:09:16.950Z,24.87
2018-11-23T18:11:45.195Z,24.57
2018-11-23T18:14:13.471Z,24.97
2018-11-23T18:16:41.714Z,24.87
2018-11-23T18:19:09.972Z,25.43
2018-11-23T18:21:38.203Z,27.40
2018-11-23T18:24:06.454Z,27.07
2018-11-23T18:26:34.665Z,26.93
2018-11-23T18:29:02.926Z,25.53
2018-11-23T18:31:31.175Z,24.77
2018-11-23T18:33:59.434Z,24.73
2018-11-23T18:36:27.638Z,23.87
2018-11-23T18:38:55.846Z,24.93
2018-11-23T18:41:24.070Z,23.90
2018-11-23T18:43:52.262Z,23.70
2018-11-23T18:46:20.534Z,25.60
2018-11-23T18:48:48.788Z,26.37
2018-11-23T18:51:16.734Z,25.63
2018-11-23T18:53:45.002Z,25.67
2018-11-23T18:56:13.228Z,26.60
2018-11-23T18:58:41.435Z,27.20
2018-11-23T19:01:09.651Z,27.37
2018-11-23T19:03:37.891Z,27.00
2018-11-23T19:06:06.102Z,25.47
2018-11-23T19:08:34.321Z,23.90
2018-11-23T19:11:02.524Z,23.83
2018-11-23T19:13:30.941Z,24.10
2018-11-23T19:15:59.155Z,23.57
2018-11-23T19:18:27.398Z,24.47
2018-11-23T19:20:55.650Z,22.50
2018-11-23T19:23:23.863Z,23.20
2018-11-23T19:25:52.109Z,25.10
2018-11-23T19:28:20.377Z,23.77
2018-11-23T19:30:48.603Z,29.20
2018-11-23T19:33:16.831Z,36.37
2018-11-23T19:35:45.065Z,43.60
2018-11-23T19:38:13.281Z,37.93
2018-11-23T19:40:41.489Z,31.73
2018-11-23T19:43:09.706Z,30.73
2018-11-23T19:45:37.922Z,28.93
2018-11-23T19:48:06.406Z,27.63
2018-11-23T19:50:34.616Z,30.17
2018-11-23T19:53:02.812Z,30.23
2018-11-23T19:55:31.071Z,29.93
2018-11-23T19:57:59.286Z,28.53
2018-11-23T20:00:27.750Z,29.07
2018-11-23T20:02:55.977Z,29.07
2018-11-23T20:05:24.226Z,30.87
2018-11-23T20:07:53.818Z,29.10
2018-11-23T20:10:22.734Z,29.13
2018-11-23T20:12:52.279Z,29.17
2018-11-23T20:15:20.548Z,27.63
2018-11-23T20:17:48.836Z,28.77
2018-11-23T20:20:17.397Z,29.17
2018-11-23T20:22:46.404Z,29.57
2018-11-23T20:25:16.490Z,28.97
2018-11-23T20:27:45.518Z,27.73
2018-11-23T20:30:15.509Z,30.37
2018-11-23T20:32:43.814Z,28.30
2018-11-23T20:35:13.987Z,29.20
2018-11-23T20:37:42.199Z,28.93
2018-11-23T20:40:12.562Z,28.30
2018-11-23T20:42:40.823Z,29.57
2018-11-23T20:45:11.096Z,28.63
2018-11-23T20:47:39.382Z,29.20
2018-11-23T20:50:09.622Z,29.47
2018-11-23T20:52:37.863Z,31.50
2018-11-23T20:55:08.242Z,33.13
2018-11-23T20:57:36.448Z,35.17
2018-11-23T21:00:09.262Z,32.00
2018-11-23T21:02:37.526Z,30.30
2018-11-23T21:05:07.405Z,31.43
2018-11-23T21:07:35.917Z,30.27
2018-11-23T21:10:06.814Z,29.97
2018-11-23T21:12:35.040Z,30.00
2018-11-23T21:15:03.359Z,29.10
2018-11-23T21:17:31.618Z,29.07
2018-11-23T21:19:59.853Z,29.90
2018-11-23T21:22:28.147Z,28.43
2018-11-23T21:24:56.371Z,30.13
2018-11-23T21:27:24.587Z,29.13
2018-11-23T21:29:52.827Z,30.50
2018-11-23T21:32:21.062Z,29.67
2018-11-23T21:34:49.266Z,29.73
2018-11-23T21:37:17.515Z,29.57
2018-11-23T21:39:45.757Z,28.53
2018-11-23T21:42:13.958Z,29.53
2018-11-23T21:44:42.192Z,35.57
2018-11-23T21:47:10.413Z,34.20
2018-11-23T21:49:38.650Z,32.37
2018-11-23T21:52:06.930Z,32.40
2018-11-23T21:54:35.159Z,29.43
2018-11-23T21:57:03.475Z,31.90
2018-11-23T21:59:31.751Z,30.20
2018-11-23T22:02:00.385Z,29.73
2018-11-23T22:04:28.230Z,29.10
2018-11-23T22:06:56.506Z,29.53
2018-11-23T22:09:24.767Z,29.53
2018-11-23T22:11:53.088Z,29.77
2018-11-23T22:14:21.343Z,30.57
2018-11-23T22:16:49.614Z,30.60
2018-11-23T22:19:17.870Z,30.37
2018-11-23T22:21:46.105Z,30.57
2018-11-23T22:24:14.343Z,29.73
2018-11-23T22:26:42.677Z,29.13
2018-11-23T22:29:10.912Z,29.73
2018-11-23T22:31:39.154Z,29.43
2018-11-23T22:34:07.436Z,28.30
2018-11-23T22:36:35.684Z,29.70
2018-11-23T22:39:05.951Z,28.80
2018-11-23T22:41:34.224Z,28.13
2018-11-23T22:44:02.443Z,28.37
2018-11-23T22:46:30.672Z,28.13
2018-11-23T22:48:58.903Z,25.73
2018-11-23T22:51:27.122Z,27.10
2018-11-23T22:53:55.341Z,27.20
2018-11-23T22:56:23.570Z,26.80
2018-11-23T22:58:55.480Z,25.93
2018-11-23T23:01:20.016Z,27.60
2018-11-23T23:03:48.262Z,27.63
2018-11-23T23:06:16.476Z,28.80
2018-11-23T23:08:44.721Z,25.60
2018-11-23T23:11:12.950Z,26.93
2018-11-23T23:13:41.209Z,27.47
2018-11-23T23:16:09.437Z,28.10
2018-11-23T23:18:37.663Z,27.60
2018-11-23T23:21:05.894Z,28.93
2018-11-23T23:23:34.115Z,27.80
2018-11-23T23:26:02.343Z,28.20
2018-11-23T23:28:30.594Z,28.17
2018-11-23T23:30:58.832Z,28.70
2018-11-23T23:33:27.065Z,29.00
2018-11-23T23:35:55.269Z,28.67
2018-11-23T23:38:23.528Z,29.67
2018-11-23T23:40:52.027Z,27.97
2018-11-23T23:43:20.274Z,28.97
2018-11-23T23:45:48.601Z,27.30
2018-11-23T23:48:16.827Z,27.60
2018-11-23T23:50:45.040Z,26.90
2018-11-23T23:53:13.274Z,26.47
2018-11-23T23:55:41.576Z,27.40
2018-11-23T23:58:09.818Z,26.67
